createdAt,value
2018-04-23T00:00:06.258Z,9.656064
2018-04-23T00:00:18.704Z,14.484096
2018-04-23T00:00:31.207Z,14.484096
2018-04-23T00:00:43.641Z,14.484096
2018-04-23T00:00:56.096Z,14.484096
2018-04-23T00:01:08.525Z,11.265408
2018-04-23T00:01:20.955Z,16.09344
2018-04-23T00:01:33.370Z,16.09344
2018-04-23T00:01:45.768Z,16.09344
2018-04-23T00:01:58.183Z,16.09344
2018-04-23T00:02:10.577Z,12.874752
2018-04-23T00:02:23.021Z,14.484096
2018-04-23T00:02:35.442Z,14.484096
2018-04-23T00:02:47.844Z,14.484096
2018-04-23T00:03:00.279Z,14.484096
2018-04-23T00:03:12.708Z,6.437376
2018-04-23T00:03:25.128Z,8.04672
2018-04-23T00:03:37.539Z,14.484096
2018-04-23T00:03:49.981Z,14.484096
2018-04-23T00:04:02.382Z,16.09344
2018-04-23T00:04:14.805Z,17.702784
2018-04-23T00:04:27.193Z,17.702784
2018-04-23T00:04:39.577Z,17.702784
2018-04-23T00:04:51.969Z,17.702784
2018-04-23T00:05:04.372Z,1.609344
2018-04-23T00:05:16.853Z,8.04672
2018-04-23T00:05:29.322Z,16.09344
2018-04-23T00:05:41.717Z,16.09344
2018-04-23T00:05:54.106Z,16.09344
2018-04-23T00:06:06.556Z,3.218688
2018-04-23T00:06:18.984Z,11.265408
2018-04-23T00:06:31.375Z,11.265408
2018-04-23T00:06:43.785Z,11.265408
2018-04-23T00:06:56.190Z,11.265408
2018-04-23T00:07:08.599Z,6.437376
2018-04-23T00:07:21.012Z,9.656064
2018-04-23T00:07:33.483Z,9.656064
2018-04-23T00:07:45.875Z,9.656064
2018-04-23T00:07:58.283Z,9.656064
2018-04-23T00:08:10.684Z,6.437376
2018-04-23T00:08:23.102Z,9.656064
2018-04-23T00:08:35.518Z,12.874752
2018-04-23T00:08:47.911Z,14.484096
2018-04-23T00:09:00.304Z,14.484096
2018-04-23T00:09:12.743Z,14.484096
2018-04-23T00:09:25.149Z,14.484096
2018-04-23T00:09:37.547Z,14.484096
2018-04-23T00:09:49.951Z,14.484096
2018-04-23T00:10:02.366Z,14.484096
2018-04-23T00:10:14.768Z,9.656064
2018-04-23T00:10:27.281Z,11.265408
2018-04-23T00:10:39.737Z,11.265408
2018-04-23T00:10:52.152Z,11.265408
2018-04-23T00:11:04.580Z,11.265408
2018-04-23T00:11:16.998Z,11.265408
2018-04-23T00:11:29.413Z,11.265408
2018-04-23T00:11:41.834Z,11.265408
2018-04-23T00:11:54.365Z,11.265408
2018-04-23T00:12:06.787Z,6.437376
2018-04-23T00:12:19.202Z,6.437376
2018-04-23T00:12:31.596Z,6.437376
2018-04-23T00:12:44.005Z,9.656064
2018-04-23T00:12:56.577Z,9.656064
2018-04-23T00:13:08.980Z,14.484096
2018-04-23T00:13:21.384Z,14.484096
2018-04-23T00:13:33.848Z,14.484096
2018-04-23T00:13:46.293Z,14.484096
2018-04-23T00:13:58.717Z,14.484096
2018-04-23T00:14:11.130Z,11.265408
2018-04-23T00:14:23.540Z,11.265408
2018-04-23T00:14:35.952Z,11.265408
2018-04-23T00:14:48.348Z,11.265408
2018-04-23T00:15:00.729Z,11.265408
2018-04-23T00:15:13.143Z,3.218688
2018-04-23T00:15:25.568Z,4.828032
2018-04-23T00:15:38.019Z,6.437376
2018-04-23T00:15:50.460Z,6.437376
2018-04-23T00:16:02.863Z,8.04672
2018-04-23T00:16:15.265Z,3.218688
2018-04-23T00:16:27.655Z,8.04672
2018-04-23T00:16:40.060Z,9.656064
2018-04-23T00:16:52.450Z,9.656064
2018-04-23T00:17:04.872Z,8.04672
2018-04-23T00:17:17.292Z,8.04672
2018-04-23T00:17:29.692Z,8.04672
2018-04-23T00:17:42.113Z,8.04672
2018-04-23T00:17:54.542Z,9.656064
2018-04-23T00:18:06.959Z,6.437376
2018-04-23T00:18:19.365Z,6.437376
2018-04-23T00:18:32.123Z,6.437376
2018-04-23T00:18:44.510Z,6.437376
2018-04-23T00:18:56.904Z,6.437376
2018-04-23T00:19:09.312Z,1.609344
2018-04-23T00:19:21.714Z,3.218688
2018-04-23T00:19:34.106Z,6.437376
2018-04-23T00:19:46.514Z,11.265408
2018-04-23T00:19:59.075Z,12.874752
2018-04-23T00:20:11.524Z,9.656064
2018-04-23T00:20:23.945Z,9.656064
2018-04-23T00:20:36.361Z,9.656064
2018-04-23T00:20:48.780Z,9.656064
2018-04-23T00:21:01.165Z,9.656064
2018-04-23T00:21:13.620Z,9.656064
2018-04-23T00:21:26.011Z,9.656064
2018-04-23T00:21:38.413Z,9.656064
2018-04-23T00:21:50.803Z,9.656064
2018-04-23T00:22:03.187Z,9.656064
2018-04-23T00:22:15.620Z,9.656064
2018-04-23T00:22:28.039Z,9.656064
2018-04-23T00:22:40.444Z,9.656064
2018-04-23T00:22:52.839Z,9.656064
2018-04-23T00:23:05.555Z,3.218688
2018-04-23T00:23:18.178Z,9.656064
2018-04-23T00:23:30.603Z,9.656064
2018-04-23T00:23:43.012Z,9.656064
2018-04-23T00:23:55.474Z,9.656064
2018-04-23T00:24:07.867Z,9.656064
2018-04-23T00:24:20.281Z,9.656064
2018-04-23T00:24:32.680Z,9.656064
2018-04-23T00:24:45.104Z,9.656064
2018-04-23T00:24:57.519Z,9.656064
2018-04-23T00:25:09.927Z,6.437376
2018-04-23T00:25:22.436Z,6.437376
2018-04-23T00:25:34.831Z,6.437376
2018-04-23T00:25:47.258Z,6.437376
2018-04-23T00:25:59.697Z,6.437376
2018-04-23T00:26:12.155Z,1.609344
2018-04-23T00:26:24.628Z,3.218688
2018-04-23T00:26:37.026Z,6.437376
2018-04-23T00:26:49.408Z,6.437376
2018-04-23T00:27:01.821Z,6.437376
2018-04-23T00:27:14.216Z,4.828032
2018-04-23T00:27:26.650Z,6.437376
2018-04-23T00:27:39.035Z,6.437376
2018-04-23T00:27:51.425Z,6.437376
2018-04-23T00:28:03.837Z,6.437376
2018-04-23T00:28:16.298Z,3.218688
2018-04-23T00:28:28.752Z,3.218688
2018-04-23T00:28:41.159Z,3.218688
2018-04-23T00:28:53.549Z,3.218688
2018-04-23T00:29:05.947Z,1.609344
2018-04-23T00:29:18.351Z,3.218688
2018-04-23T00:29:30.760Z,8.04672
2018-04-23T00:29:43.316Z,9.656064
2018-04-23T00:29:55.782Z,9.656064
2018-04-23T00:30:08.177Z,4.828032
2018-04-23T00:30:20.577Z,6.437376
2018-04-23T00:30:33.009Z,6.437376
2018-04-23T00:30:45.418Z,6.437376
2018-04-23T00:30:57.813Z,6.437376
2018-04-23T00:31:10.209Z,4.828032
2018-04-23T00:31:22.604Z,8.04672
2018-04-23T00:31:35.021Z,9.656064
2018-04-23T00:31:47.450Z,9.656064
2018-04-23T00:31:59.876Z,11.265408
2018-04-23T00:32:12.324Z,9.656064
2018-04-23T00:32:24.736Z,11.265408
2018-04-23T00:32:37.156Z,11.265408
2018-04-23T00:32:49.541Z,11.265408
2018-04-23T00:33:01.971Z,11.265408
2018-04-23T00:33:14.410Z,12.874752
2018-04-23T00:33:26.833Z,12.874752
2018-04-23T00:33:39.232Z,12.874752
2018-04-23T00:33:51.638Z,12.874752
2018-04-23T00:34:04.044Z,12.874752
2018-04-23T00:34:16.441Z,9.656064
2018-04-23T00:34:28.977Z,9.656064
2018-04-23T00:34:41.426Z,9.656064
2018-04-23T00:34:53.860Z,9.656064
2018-04-23T00:35:06.280Z,6.437376
2018-04-23T00:35:18.660Z,8.04672
2018-04-23T00:35:31.071Z,8.04672
2018-04-23T00:35:43.516Z,8.04672
2018-04-23T00:35:55.907Z,8.04672
2018-04-23T00:36:08.322Z,6.437376
2018-04-23T00:36:20.706Z,6.437376
2018-04-23T00:36:33.093Z,6.437376
2018-04-23T00:36:45.524Z,6.437376
2018-04-23T00:36:57.918Z,6.437376
2018-04-23T00:37:10.329Z,6.437376
2018-04-23T00:37:22.733Z,6.437376
2018-04-23T00:37:35.120Z,6.437376
2018-04-23T00:37:47.507Z,6.437376
2018-04-23T00:37:59.911Z,6.437376
2018-04-23T00:38:12.316Z,3.218688
2018-04-23T00:38:24.725Z,6.437376
2018-04-23T00:38:37.132Z,6.437376
2018-04-23T00:38:49.539Z,6.437376
2018-04-23T00:39:01.930Z,6.437376
2018-04-23T00:39:14.335Z,3.218688
2018-04-23T00:39:26.758Z,4.828032
2018-04-23T00:39:39.234Z,4.828032
2018-04-23T00:39:51.634Z,4.828032
2018-04-23T00:40:04.094Z,4.828032
2018-04-23T00:40:16.508Z,3.218688
2018-04-23T00:40:28.961Z,3.218688
2018-04-23T00:40:41.364Z,3.218688
2018-04-23T00:40:53.769Z,3.218688
2018-04-23T00:41:06.170Z,0
2018-04-23T00:41:18.593Z,1.609344
2018-04-23T00:41:30.971Z,1.609344
2018-04-23T00:41:43.410Z,1.609344
2018-04-23T00:41:55.797Z,1.609344
2018-04-23T00:42:08.227Z,0
2018-04-23T00:42:20.654Z,0
2018-04-23T00:42:33.067Z,0
2018-04-23T00:42:45.460Z,0
2018-04-23T00:42:57.854Z,0
2018-04-23T00:43:10.264Z,0
2018-04-23T00:43:22.646Z,0
2018-04-23T00:43:35.053Z,0
2018-04-23T00:43:47.450Z,0
2018-04-23T00:43:59.851Z,0
2018-04-23T00:44:12.406Z,0
2018-04-23T00:44:24.793Z,0
2018-04-23T00:44:37.211Z,0
2018-04-23T00:44:49.622Z,0
2018-04-23T00:45:02.034Z,0
2018-04-23T00:45:14.435Z,0
2018-04-23T00:45:26.834Z,0
2018-04-23T00:45:39.231Z,0
2018-04-23T00:45:51.617Z,0
2018-04-23T00:46:04.013Z,0
2018-04-23T00:46:16.432Z,0
2018-04-23T00:46:28.883Z,0
2018-04-23T00:46:41.278Z,0
2018-04-23T00:46:53.683Z,0
2018-04-23T00:47:06.090Z,0
2018-04-23T00:47:18.488Z,0
2018-04-23T00:47:30.887Z,0
2018-04-23T00:47:43.292Z,0
2018-04-23T00:47:55.722Z,3.218688
2018-04-23T00:48:08.291Z,3.218688
2018-04-23T00:48:20.707Z,6.437376
2018-04-23T00:48:33.121Z,6.437376
2018-04-23T00:48:45.530Z,6.437376
2018-04-23T00:48:57.941Z,6.437376
2018-04-23T00:49:10.371Z,3.218688
2018-04-23T00:49:22.760Z,3.218688
2018-04-23T00:49:35.181Z,3.218688
2018-04-23T00:49:47.635Z,3.218688
2018-04-23T00:50:00.148Z,3.218688
2018-04-23T00:50:12.565Z,3.218688
2018-04-23T00:50:24.980Z,3.218688
2018-04-23T00:50:37.395Z,3.218688
2018-04-23T00:50:49.820Z,3.218688
2018-04-23T00:51:02.210Z,3.218688
2018-04-23T00:51:14.606Z,0
2018-04-23T00:51:27.027Z,0
2018-04-23T00:51:39.430Z,0
2018-04-23T00:51:51.832Z,0
2018-04-23T00:52:04.304Z,0
2018-04-23T00:52:16.701Z,0
2018-04-23T00:52:29.386Z,1.609344
2018-04-23T00:52:41.793Z,1.609344
2018-04-23T00:52:54.175Z,1.609344
2018-04-23T00:53:06.558Z,1.609344
2018-04-23T00:53:18.970Z,1.609344
2018-04-23T00:53:31.360Z,1.609344
2018-04-23T00:53:43.765Z,1.609344
2018-04-23T00:53:56.183Z,1.609344
2018-04-23T00:54:08.643Z,1.609344
2018-04-23T00:54:21.035Z,1.609344
2018-04-23T00:54:33.436Z,1.609344
2018-04-23T00:54:45.834Z,1.609344
2018-04-23T00:54:58.210Z,1.609344
2018-04-23T00:55:10.656Z,0
2018-04-23T00:55:23.140Z,0
2018-04-23T00:55:35.546Z,1.609344
2018-04-23T00:55:47.978Z,3.218688
2018-04-23T00:56:00.390Z,3.218688
2018-04-23T00:56:12.811Z,4.828032
2018-04-23T00:56:25.237Z,4.828032
2018-04-23T00:56:37.640Z,4.828032
2018-04-23T00:56:50.033Z,6.437376
2018-04-23T00:57:02.423Z,6.437376
2018-04-23T00:57:14.824Z,1.609344
2018-04-23T00:57:27.265Z,3.218688
2018-04-23T00:57:39.683Z,3.218688
2018-04-23T00:57:52.071Z,6.437376
2018-04-23T00:58:04.487Z,3.218688
2018-04-23T00:58:16.879Z,6.437376
2018-04-23T00:58:29.323Z,6.437376
2018-04-23T00:58:41.737Z,6.437376
2018-04-23T00:58:54.145Z,6.437376
2018-04-23T00:59:06.541Z,3.218688
2018-04-23T00:59:18.946Z,4.828032
2018-04-23T00:59:31.356Z,6.437376
2018-04-23T00:59:43.776Z,6.437376
2018-04-23T00:59:56.175Z,6.437376
2018-04-23T01:00:08.620Z,6.437376
2018-04-23T01:00:21.034Z,6.437376
2018-04-23T01:00:33.474Z,6.437376
2018-04-23T01:00:45.886Z,6.437376
2018-04-23T01:00:58.359Z,6.437376
2018-04-23T01:01:10.795Z,3.218688
2018-04-23T01:01:23.243Z,3.218688
2018-04-23T01:01:35.711Z,4.828032
2018-04-23T01:01:48.136Z,8.04672
2018-04-23T01:02:00.554Z,8.04672
2018-04-23T01:02:12.957Z,3.218688
2018-04-23T01:02:25.610Z,4.828032
2018-04-23T01:02:37.997Z,4.828032
2018-04-23T01:02:50.407Z,4.828032
2018-04-23T01:03:02.842Z,4.828032
2018-04-23T01:03:15.288Z,1.609344
2018-04-23T01:03:27.721Z,3.218688
2018-04-23T01:03:40.108Z,3.218688
2018-04-23T01:03:52.501Z,3.218688
2018-04-23T01:04:04.905Z,1.609344
2018-04-23T01:04:17.329Z,1.609344
2018-04-23T01:04:29.786Z,1.609344
2018-04-23T01:04:42.191Z,1.609344
2018-04-23T01:04:54.600Z,1.609344
2018-04-23T01:05:07.187Z,1.609344
2018-04-23T01:05:19.580Z,1.609344
2018-04-23T01:05:32.044Z,1.609344
2018-04-23T01:05:44.438Z,1.609344
2018-04-23T01:05:56.829Z,1.609344
2018-04-23T01:06:09.257Z,1.609344
2018-04-23T01:06:21.653Z,1.609344
2018-04-23T01:06:34.062Z,6.437376
2018-04-23T01:06:46.483Z,6.437376
2018-04-23T01:06:58.891Z,6.437376
2018-04-23T01:07:11.313Z,3.218688
2018-04-23T01:07:23.701Z,3.218688
2018-04-23T01:07:36.132Z,3.218688
2018-04-23T01:07:48.562Z,3.218688
2018-04-23T01:08:01.027Z,3.218688
2018-04-23T01:08:13.469Z,3.218688
2018-04-23T01:08:25.864Z,4.828032
2018-04-23T01:08:38.281Z,4.828032
2018-04-23T01:08:50.694Z,4.828032
2018-04-23T01:09:03.092Z,4.828032
2018-04-23T01:09:15.490Z,6.437376
2018-04-23T01:09:27.925Z,6.437376
2018-04-23T01:09:40.319Z,6.437376
2018-04-23T01:09:52.728Z,6.437376
2018-04-23T01:10:05.130Z,3.218688
2018-04-23T01:10:17.552Z,3.218688
2018-04-23T01:10:29.954Z,8.04672
2018-04-23T01:10:42.355Z,8.04672
2018-04-23T01:10:54.769Z,8.04672
2018-04-23T01:11:07.179Z,3.218688
2018-04-23T01:11:19.598Z,8.04672
2018-04-23T01:11:31.998Z,8.04672
2018-04-23T01:11:44.423Z,9.656064
2018-04-23T01:11:56.814Z,9.656064
2018-04-23T01:12:09.221Z,6.437376
2018-04-23T01:12:21.620Z,6.437376
2018-04-23T01:12:34.171Z,6.437376
2018-04-23T01:12:46.575Z,6.437376
2018-04-23T01:12:58.967Z,6.437376
2018-04-23T01:13:11.366Z,6.437376
2018-04-23T01:13:23.759Z,6.437376
2018-04-23T01:13:36.397Z,6.437376
2018-04-23T01:13:48.796Z,6.437376
2018-04-23T01:14:01.185Z,6.437376
2018-04-23T01:14:13.599Z,6.437376
2018-04-23T01:14:25.984Z,6.437376
2018-04-23T01:14:38.403Z,6.437376
2018-04-23T01:14:50.806Z,6.437376
2018-04-23T01:15:03.194Z,6.437376
2018-04-23T01:15:15.601Z,3.218688
2018-04-23T01:15:27.990Z,6.437376
2018-04-23T01:15:40.389Z,8.04672
2018-04-23T01:15:52.791Z,8.04672
2018-04-23T01:16:05.211Z,6.437376
2018-04-23T01:16:17.626Z,6.437376
2018-04-23T01:16:30.026Z,6.437376
2018-04-23T01:16:42.420Z,6.437376
2018-04-23T01:16:54.818Z,6.437376
2018-04-23T01:17:07.229Z,8.04672
2018-04-23T01:17:19.631Z,8.04672
2018-04-23T01:17:32.115Z,8.04672
2018-04-23T01:17:44.506Z,8.04672
2018-04-23T01:17:56.907Z,8.04672
2018-04-23T01:18:09.312Z,3.218688
2018-04-23T01:18:21.941Z,3.218688
2018-04-23T01:18:34.676Z,3.218688
2018-04-23T01:18:47.096Z,6.437376
2018-04-23T01:18:59.499Z,8.04672
2018-04-23T01:19:11.910Z,6.437376
2018-04-23T01:19:24.353Z,8.04672
2018-04-23T01:19:36.760Z,8.04672
2018-04-23T01:19:49.185Z,8.04672
2018-04-23T01:20:01.664Z,8.04672
2018-04-23T01:20:14.057Z,8.04672
2018-04-23T01:20:26.515Z,8.04672
2018-04-23T01:20:38.923Z,8.04672
2018-04-23T01:20:51.334Z,8.04672
2018-04-23T01:21:03.731Z,8.04672
2018-04-23T01:21:16.147Z,6.437376
2018-04-23T01:21:28.598Z,8.04672
2018-04-23T01:21:40.985Z,8.04672
2018-04-23T01:21:53.432Z,8.04672
2018-04-23T01:22:05.832Z,6.437376
2018-04-23T01:22:18.232Z,8.04672
2018-04-23T01:22:30.651Z,8.04672
2018-04-23T01:22:43.063Z,9.656064
2018-04-23T01:22:55.577Z,9.656064
2018-04-23T01:23:08.280Z,6.437376
2018-04-23T01:23:20.769Z,6.437376
2018-04-23T01:23:33.159Z,6.437376
2018-04-23T01:23:45.552Z,6.437376
2018-04-23T01:23:57.967Z,6.437376
2018-04-23T01:24:10.385Z,6.437376
2018-04-23T01:24:22.800Z,6.437376
2018-04-23T01:24:35.182Z,6.437376
2018-04-23T01:24:47.622Z,6.437376
2018-04-23T01:25:00.021Z,6.437376
2018-04-23T01:25:12.445Z,4.828032
2018-04-23T01:25:24.869Z,6.437376
2018-04-23T01:25:37.276Z,6.437376
2018-04-23T01:25:49.753Z,6.437376
2018-04-23T01:26:02.152Z,6.437376
2018-04-23T01:26:14.558Z,4.828032
2018-04-23T01:26:26.967Z,4.828032
2018-04-23T01:26:39.382Z,4.828032
2018-04-23T01:26:51.773Z,8.04672
2018-04-23T01:27:04.206Z,8.04672
2018-04-23T01:27:16.592Z,6.437376
2018-04-23T01:27:29.003Z,6.437376
2018-04-23T01:27:41.414Z,8.04672
2018-04-23T01:27:53.872Z,8.04672
2018-04-23T01:28:06.267Z,3.218688
2018-04-23T01:28:18.685Z,3.218688
2018-04-23T01:28:31.212Z,6.437376
2018-04-23T01:28:43.610Z,8.04672
2018-04-23T01:28:56.002Z,8.04672
2018-04-23T01:29:08.415Z,3.218688
2018-04-23T01:29:21.012Z,4.828032
2018-04-23T01:29:33.425Z,6.437376
2018-04-23T01:29:46.030Z,6.437376
2018-04-23T01:29:58.437Z,8.04672
2018-04-23T01:30:10.866Z,6.437376
2018-04-23T01:30:23.256Z,6.437376
2018-04-23T01:30:35.652Z,8.04672
2018-04-23T01:30:48.057Z,8.04672
2018-04-23T01:31:00.467Z,8.04672
2018-04-23T01:31:12.875Z,6.437376
2018-04-23T01:31:25.265Z,6.437376
2018-04-23T01:31:37.679Z,6.437376
2018-04-23T01:31:50.075Z,8.04672
2018-04-23T01:32:02.477Z,8.04672
2018-04-23T01:32:14.870Z,6.437376
2018-04-23T01:32:27.266Z,6.437376
2018-04-23T01:32:39.649Z,6.437376
2018-04-23T01:32:52.055Z,6.437376
2018-04-23T01:33:04.457Z,4.828032
2018-04-23T01:33:16.874Z,6.437376
2018-04-23T01:33:29.270Z,9.656064
2018-04-23T01:33:41.690Z,9.656064
2018-04-23T01:33:54.088Z,9.656064
2018-04-23T01:34:06.480Z,6.437376
2018-04-23T01:34:18.886Z,6.437376
2018-04-23T01:34:31.469Z,6.437376
2018-04-23T01:34:43.868Z,6.437376
2018-04-23T01:34:56.317Z,6.437376
2018-04-23T01:35:08.702Z,3.218688
2018-04-23T01:35:21.153Z,3.218688
2018-04-23T01:35:33.550Z,3.218688
2018-04-23T01:35:45.985Z,3.218688
2018-04-23T01:35:58.376Z,3.218688
2018-04-23T01:36:10.787Z,3.218688
2018-04-23T01:36:23.191Z,3.218688
2018-04-23T01:36:35.599Z,3.218688
2018-04-23T01:36:48.026Z,3.218688
2018-04-23T01:37:00.445Z,3.218688
2018-04-23T01:37:12.852Z,3.218688
2018-04-23T01:37:25.260Z,6.437376
2018-04-23T01:37:37.687Z,6.437376
2018-04-23T01:37:50.121Z,8.04672
2018-04-23T01:38:02.516Z,8.04672
2018-04-23T01:38:14.927Z,3.218688
2018-04-23T01:38:27.322Z,3.218688
2018-04-23T01:38:39.707Z,3.218688
2018-04-23T01:38:52.111Z,3.218688
2018-04-23T01:39:04.513Z,1.609344
2018-04-23T01:39:16.962Z,3.218688
2018-04-23T01:39:29.405Z,3.218688
2018-04-23T01:39:41.801Z,3.218688
2018-04-23T01:39:54.438Z,3.218688
2018-04-23T01:40:06.832Z,3.218688
2018-04-23T01:40:19.240Z,8.04672
2018-04-23T01:40:31.623Z,8.04672
2018-04-23T01:40:44.017Z,8.04672
2018-04-23T01:40:56.418Z,8.04672
2018-04-23T01:41:08.806Z,3.218688
2018-04-23T01:41:21.229Z,3.218688
2018-04-23T01:41:33.643Z,4.828032
2018-04-23T01:41:46.090Z,6.437376
2018-04-23T01:41:58.485Z,6.437376
2018-04-23T01:42:10.938Z,8.04672
2018-04-23T01:42:23.352Z,8.04672
2018-04-23T01:42:35.750Z,8.04672
2018-04-23T01:42:48.155Z,8.04672
2018-04-23T01:43:00.550Z,8.04672
2018-04-23T01:43:12.967Z,3.218688
2018-04-23T01:43:25.372Z,3.218688
2018-04-23T01:43:37.810Z,3.218688
2018-04-23T01:43:50.202Z,3.218688
2018-04-23T01:44:02.653Z,3.218688
2018-04-23T01:44:15.059Z,6.437376
2018-04-23T01:44:27.457Z,6.437376
2018-04-23T01:44:39.836Z,6.437376
2018-04-23T01:44:52.227Z,6.437376
2018-04-23T01:45:04.637Z,3.218688
2018-04-23T01:45:17.052Z,6.437376
2018-04-23T01:45:29.463Z,6.437376
2018-04-23T01:45:41.864Z,6.437376
2018-04-23T01:45:54.272Z,6.437376
2018-04-23T01:46:06.680Z,6.437376
2018-04-23T01:46:19.074Z,6.437376
2018-04-23T01:46:31.487Z,6.437376
2018-04-23T01:46:43.882Z,6.437376
2018-04-23T01:46:56.278Z,6.437376
2018-04-23T01:47:08.680Z,3.218688
2018-04-23T01:47:21.088Z,3.218688
2018-04-23T01:47:33.487Z,3.218688
2018-04-23T01:47:45.886Z,3.218688
2018-04-23T01:47:58.303Z,3.218688
2018-04-23T01:48:10.914Z,3.218688
2018-04-23T01:48:23.337Z,3.218688
2018-04-23T01:48:35.758Z,3.218688
2018-04-23T01:48:48.158Z,3.218688
2018-04-23T01:49:00.572Z,3.218688
2018-04-23T01:49:12.982Z,1.609344
2018-04-23T01:49:25.446Z,1.609344
2018-04-23T01:49:37.859Z,1.609344
2018-04-23T01:49:50.245Z,1.609344
2018-04-23T01:50:02.746Z,1.609344
2018-04-23T01:50:15.161Z,0
2018-04-23T01:50:27.565Z,0
2018-04-23T01:50:39.980Z,0
2018-04-23T01:50:52.368Z,0
2018-04-23T01:51:04.793Z,0
2018-04-23T01:51:17.185Z,0
2018-04-23T01:51:29.578Z,0
2018-04-23T01:51:41.970Z,0
2018-04-23T01:51:54.386Z,0
2018-04-23T01:52:06.804Z,0
2018-04-23T01:52:19.194Z,0
2018-04-23T01:52:31.614Z,0
2018-04-23T01:52:44.036Z,0
2018-04-23T01:52:56.432Z,0
2018-04-23T01:53:08.827Z,0
2018-04-23T01:53:21.226Z,0
2018-04-23T01:53:33.628Z,0
2018-04-23T01:53:46.027Z,0
2018-04-23T01:53:58.427Z,0
2018-04-23T01:54:10.829Z,0
2018-04-23T01:54:23.227Z,0
2018-04-23T01:54:35.661Z,0
2018-04-23T01:54:48.084Z,0
2018-04-23T01:55:00.523Z,0
2018-04-23T01:55:12.950Z,0
2018-04-23T01:55:25.330Z,0
2018-04-23T01:55:37.735Z,0
2018-04-23T01:55:50.156Z,0
2018-04-23T01:56:02.550Z,0
2018-04-23T01:56:14.967Z,0
2018-04-23T01:56:27.377Z,0
2018-04-23T01:56:39.809Z,0
2018-04-23T01:56:52.192Z,0
2018-04-23T01:57:04.724Z,0
2018-04-23T01:57:17.108Z,0
2018-04-23T01:57:29.521Z,0
2018-04-23T01:57:41.923Z,0
2018-04-23T01:57:54.356Z,0
2018-04-23T01:58:06.741Z,0
2018-04-23T01:58:19.158Z,0
2018-04-23T01:58:31.567Z,0
2018-04-23T01:58:44.001Z,0
2018-04-23T01:58:56.425Z,0
2018-04-23T01:59:08.841Z,0
2018-04-23T01:59:21.821Z,0
2018-04-23T01:59:34.278Z,0
2018-04-23T01:59:46.946Z,0
2018-04-23T01:59:59.333Z,0
2018-04-23T02:00:11.869Z,0
2018-04-23T02:00:24.287Z,0
2018-04-23T02:00:36.709Z,0
2018-04-23T02:00:49.118Z,0
2018-04-23T02:01:01.543Z,0
2018-04-23T02:01:13.967Z,0
2018-04-23T02:01:26.442Z,0
2018-04-23T02:01:38.850Z,0
2018-04-23T02:01:51.286Z,0
2018-04-23T02:02:03.718Z,0
2018-04-23T02:02:16.132Z,0
2018-04-23T02:02:28.552Z,0
2018-04-23T02:02:40.951Z,0
2018-04-23T02:02:53.379Z,0
2018-04-23T02:03:05.796Z,0
2018-04-23T02:03:18.221Z,6.437376
2018-04-23T02:03:30.617Z,6.437376
2018-04-23T02:03:43.012Z,6.437376
2018-04-23T02:03:55.433Z,6.437376
2018-04-23T02:04:07.889Z,3.218688
2018-04-23T02:04:20.321Z,3.218688
2018-04-23T02:04:32.712Z,3.218688
2018-04-23T02:04:45.295Z,4.828032
2018-04-23T02:04:57.703Z,6.437376
2018-04-23T02:05:10.280Z,3.218688
2018-04-23T02:05:22.676Z,3.218688
2018-04-23T02:05:35.076Z,3.218688
2018-04-23T02:05:47.469Z,3.218688
2018-04-23T02:05:59.873Z,3.218688
2018-04-23T02:06:12.274Z,6.437376
2018-04-23T02:06:24.700Z,6.437376
2018-04-23T02:06:37.092Z,6.437376
2018-04-23T02:06:49.505Z,6.437376
2018-04-23T02:07:01.905Z,6.437376
2018-04-23T02:07:14.348Z,3.218688
2018-04-23T02:07:26.759Z,3.218688
2018-04-23T02:07:39.214Z,3.218688
2018-04-23T02:07:51.605Z,3.218688
2018-04-23T02:08:04.002Z,3.218688
2018-04-23T02:08:16.412Z,3.218688
2018-04-23T02:08:28.819Z,3.218688
2018-04-23T02:08:41.286Z,3.218688
2018-04-23T02:08:53.691Z,4.828032
2018-04-23T02:09:06.246Z,1.609344
2018-04-23T02:09:18.643Z,3.218688
2018-04-23T02:09:31.050Z,3.218688
2018-04-23T02:09:43.444Z,3.218688
2018-04-23T02:09:55.838Z,3.218688
2018-04-23T02:10:08.231Z,1.609344
2018-04-23T02:10:20.633Z,3.218688
2018-04-23T02:10:33.025Z,3.218688
2018-04-23T02:10:45.415Z,3.218688
2018-04-23T02:10:57.814Z,3.218688
2018-04-23T02:11:10.256Z,1.609344
2018-04-23T02:11:22.656Z,1.609344
2018-04-23T02:11:35.053Z,3.218688
2018-04-23T02:11:47.455Z,3.218688
2018-04-23T02:11:59.859Z,3.218688
2018-04-23T02:12:12.286Z,1.609344
2018-04-23T02:12:24.692Z,3.218688
2018-04-23T02:12:37.105Z,3.218688
2018-04-23T02:12:49.505Z,3.218688
2018-04-23T02:13:01.910Z,3.218688
2018-04-23T02:13:14.323Z,3.218688
2018-04-23T02:13:26.754Z,3.218688
2018-04-23T02:13:39.233Z,3.218688
2018-04-23T02:13:51.635Z,4.828032
2018-04-23T02:14:04.098Z,4.828032
2018-04-23T02:14:16.498Z,3.218688
2018-04-23T02:14:28.904Z,3.218688
2018-04-23T02:14:41.330Z,3.218688
2018-04-23T02:14:53.762Z,3.218688
2018-04-23T02:15:06.166Z,1.609344
2018-04-23T02:15:18.563Z,1.609344
2018-04-23T02:15:31.033Z,3.218688
2018-04-23T02:15:43.459Z,3.218688
2018-04-23T02:15:55.880Z,3.218688
2018-04-23T02:16:08.538Z,1.609344
2018-04-23T02:16:21.117Z,1.609344
2018-04-23T02:16:33.531Z,3.218688
2018-04-23T02:16:45.928Z,3.218688
2018-04-23T02:16:58.314Z,3.218688
2018-04-23T02:17:10.750Z,1.609344
2018-04-23T02:17:23.158Z,1.609344
2018-04-23T02:17:35.586Z,1.609344
2018-04-23T02:17:48.014Z,1.609344
2018-04-23T02:18:00.442Z,1.609344
2018-04-23T02:18:12.901Z,3.218688
2018-04-23T02:18:25.846Z,3.218688
2018-04-23T02:18:38.240Z,3.218688
2018-04-23T02:18:50.686Z,3.218688
2018-04-23T02:19:03.075Z,3.218688
2018-04-23T02:19:15.485Z,1.609344
2018-04-23T02:19:27.920Z,1.609344
2018-04-23T02:19:40.326Z,1.609344
2018-04-23T02:19:52.721Z,1.609344
2018-04-23T02:20:05.205Z,1.609344
2018-04-23T02:20:17.611Z,1.609344
2018-04-23T02:20:30.011Z,1.609344
2018-04-23T02:20:42.474Z,1.609344
2018-04-23T02:20:54.882Z,1.609344
2018-04-23T02:21:07.276Z,0
2018-04-23T02:21:19.673Z,0
2018-04-23T02:21:32.066Z,0
2018-04-23T02:21:44.461Z,0
2018-04-23T02:21:56.843Z,0
2018-04-23T02:22:09.249Z,0
2018-04-23T02:22:21.666Z,1.609344
2018-04-23T02:22:34.108Z,3.218688
2018-04-23T02:22:46.518Z,3.218688
2018-04-23T02:22:59.391Z,3.218688
2018-04-23T02:23:11.790Z,0
2018-04-23T02:23:24.252Z,0
2018-04-23T02:23:36.677Z,0
2018-04-23T02:23:49.063Z,0
2018-04-23T02:24:01.457Z,0
2018-04-23T02:24:13.861Z,0
2018-04-23T02:24:26.334Z,0
2018-04-23T02:24:38.768Z,0
2018-04-23T02:24:51.166Z,1.609344
2018-04-23T02:25:03.563Z,6.437376
2018-04-23T02:25:15.945Z,4.828032
2018-04-23T02:25:28.359Z,4.828032
2018-04-23T02:25:40.778Z,4.828032
2018-04-23T02:25:53.171Z,4.828032
2018-04-23T02:26:05.559Z,3.218688
2018-04-23T02:26:17.941Z,3.218688
2018-04-23T02:26:30.348Z,3.218688
2018-04-23T02:26:42.730Z,3.218688
2018-04-23T02:26:55.130Z,4.828032
2018-04-23T02:27:07.526Z,6.437376
2018-04-23T02:27:19.934Z,6.437376
2018-04-23T02:27:32.324Z,6.437376
2018-04-23T02:27:44.733Z,6.437376
2018-04-23T02:27:57.127Z,6.437376
2018-04-23T02:28:09.540Z,3.218688
2018-04-23T02:28:21.944Z,3.218688
2018-04-23T02:28:34.378Z,3.218688
2018-04-23T02:28:46.800Z,4.828032
2018-04-23T02:28:59.193Z,4.828032
2018-04-23T02:29:11.598Z,3.218688
2018-04-23T02:29:23.987Z,3.218688
2018-04-23T02:29:36.447Z,3.218688
2018-04-23T02:29:53.979Z,3.218688
2018-04-23T02:30:06.390Z,1.609344
2018-04-23T02:30:18.811Z,1.609344
2018-04-23T02:30:31.220Z,1.609344
2018-04-23T02:30:43.727Z,1.609344
2018-04-23T02:30:56.217Z,3.218688